createdAt,value
2022-09-07T00:01:01.078Z,97374.84
2022-09-07T00:11:05.701Z,97368.09
2022-09-07T00:21:09.263Z,97370.81
2022-09-07T00:31:16.784Z,97369.72
2022-09-07T00:41:19.871Z,97359.78
2022-09-07T00:51:30.861Z,97349.06
2022-09-07T01:01:34.323Z,97359.00
2022-09-07T01:11:36.499Z,97371.69
2022-09-07T01:21:56.669Z,97373.28
2022-09-07T01:32:16.760Z,97375.44
2022-09-07T01:42:24.462Z,97376.81
2022-09-07T01:52:42.398Z,97356.13
2022-09-07T02:03:38.077Z,97359.00
2022-09-07T02:13:48.848Z,97375.03
2022-09-07T02:24:04.126Z,97375.28
2022-09-07T02:34:05.887Z,97385.75
2022-09-07T02:44:20.148Z,97377.34
2022-09-07T02:54:40.229Z,97366.31
2022-09-07T03:04:49.716Z,97357.72
2022-09-07T03:14:51.251Z,97348.19
2022-09-07T03:24:52.749Z,97356.72
2022-09-07T03:34:54.504Z,97374.97
2022-09-07T03:44:56.009Z,97371.03
2022-09-07T03:54:57.490Z,97357.50
2022-09-07T04:04:58.957Z,97349.66
2022-09-07T04:15:00.496Z,97356.88
2022-09-07T04:25:01.984Z,97360.78
2022-09-07T04:35:03.690Z,97362.09
2022-09-07T04:45:05.757Z,97365.22
2022-09-07T04:55:07.636Z,97372.78
2022-09-07T05:05:09.361Z,97391.06
2022-09-07T05:15:11.006Z,97391.78
2022-09-07T05:25:12.557Z,97395.78
2022-09-07T05:35:14.600Z,97416.53
2022-09-07T05:45:16.702Z,97424.28
2022-09-07T05:55:30.001Z,97436.47
2022-09-07T06:05:32.036Z,97433.16
2022-09-07T06:15:34.434Z,97452.44
2022-09-07T06:25:36.500Z,97446.44
2022-09-07T06:35:38.491Z,97444.34
2022-09-07T06:45:40.102Z,97438.81
2022-09-07T06:55:45.183Z,97445.72
2022-09-07T07:05:52.120Z,97444.03
2022-09-07T07:15:53.985Z,97439.53
2022-09-07T07:25:55.929Z,97434.38
2022-09-07T07:36:08.134Z,97451.19
2022-09-07T07:46:13.620Z,97439.44
2022-09-07T07:56:15.260Z,97438.44
2022-09-07T08:06:20.979Z,97416.66
2022-09-07T08:16:23.030Z,97397.22
2022-09-07T08:26:24.508Z,97388.69
2022-09-07T08:36:25.999Z,97386.75
2022-09-07T08:46:52.390Z,97394.50
2022-09-07T09:07:45.823Z,97381.97
2022-09-07T09:17:55.606Z,97365.84
2022-09-07T09:27:57.097Z,97368.38
2022-09-07T09:37:58.698Z,97369.81
2022-09-07T09:48:01.345Z,97370.88
2022-09-07T10:09:01.857Z,97367.50
2022-09-07T10:19:03.376Z,97357.94
2022-09-07T10:29:31.589Z,97361.38
2022-09-07T10:39:40.289Z,97344.66
2022-09-07T11:00:17.270Z,97308.81
2022-09-07T11:10:32.929Z,97286.00
2022-09-07T11:20:56.241Z,97284.53
2022-09-07T11:31:02.541Z,97280.56
2022-09-07T11:41:30.279Z,97276.16
2022-09-07T11:51:54.048Z,97269.03
2022-09-07T12:02:57.640Z,97258.38
2022-09-07T12:13:13.770Z,97257.91
2022-09-07T12:23:16.244Z,97246.09
2022-09-07T12:33:24.424Z,97241.34
2022-09-07T12:43:35.520Z,97236.81
2022-09-07T12:54:01.254Z,97216.38
2022-09-07T13:04:15.160Z,97219.22
2022-09-07T13:14:24.702Z,97200.91
2022-09-07T13:24:47.695Z,97198.31
2022-09-07T13:35:01.633Z,97187.38
2022-09-07T13:45:07.624Z,97176.88
2022-09-07T13:55:46.031Z,97169.88
2022-09-07T14:05:47.885Z,97150.94
2022-09-07T14:15:50.770Z,97144.00
2022-09-07T14:26:16.582Z,97143.78
2022-09-07T14:46:50.584Z,97134.03
2022-09-07T14:57:25.325Z,97115.06
2022-09-07T15:07:37.493Z,97098.00
2022-09-07T15:17:46.407Z,97097.91
2022-09-07T15:27:48.587Z,97085.63
2022-09-07T15:38:58.814Z,97071.41
2022-09-07T15:48:14.308Z,97064.78
2022-09-07T15:58:15.742Z,97062.69
2022-09-07T16:08:25.339Z,97060.72
2022-09-07T16:18:31.265Z,97056.19
2022-09-07T16:28:35.149Z,97058.22
2022-09-07T16:38:44.786Z,97066.75
2022-09-07T16:48:47.479Z,97052.69
2022-09-07T16:58:51.864Z,97047.16
2022-09-07T17:08:54.658Z,97047.78
2022-09-07T17:29:20.811Z,97036.72
2022-09-07T17:39:22.537Z,97047.22
2022-09-07T17:49:25.071Z,97038.22
2022-09-07T18:09:48.146Z,97023.81
2022-09-07T18:19:49.615Z,97025.16
2022-09-07T18:29:51.058Z,97037.59
2022-09-07T18:39:52.554Z,97041.69
2022-09-07T18:49:54.870Z,97047.31
2022-09-07T18:59:56.654Z,97046.16
2022-09-07T19:09:58.402Z,97053.66
2022-09-07T19:20:00.953Z,97054.63
2022-09-07T19:30:02.832Z,97073.66
2022-09-07T19:40:05.101Z,97079.63
2022-09-07T19:50:07.051Z,97069.03
2022-09-07T20:00:09.360Z,97072.06
2022-09-07T20:10:13.405Z,97072.00
2022-09-07T20:20:15.123Z,97052.16
2022-09-07T20:30:17.868Z,97042.03
2022-09-07T20:40:19.455Z,97036.00
2022-09-07T20:50:20.987Z,97009.69
2022-09-07T21:00:23.302Z,96999.59
2022-09-07T21:10:24.777Z,96994.91
2022-09-07T21:20:26.198Z,96974.34
2022-09-07T21:30:27.849Z,96988.97
2022-09-07T21:40:29.489Z,96986.53
2022-09-07T21:50:30.950Z,96986.53
2022-09-07T22:00:32.526Z,96975.47
2022-09-07T22:10:35.515Z,96971.19
2022-09-07T22:20:37.025Z,96972.75
2022-09-07T22:30:38.525Z,96953.47
2022-09-07T22:40:41.195Z,96963.94
2022-09-07T22:50:42.915Z,96968.22
2022-09-07T23:00:45.054Z,97055.22
2022-09-07T23:10:46.777Z,97092.31
2022-09-07T23:20:48.361Z,97109.69
2022-09-07T23:30:51.086Z,97110.69
2022-09-07T23:40:54.516Z,97096.13
2022-09-07T23:50:55.948Z,97074.34
